createdAt,value
2022-07-30T00:00:13.534Z,1017.20
2022-07-30T00:01:12.929Z,1017.20
2022-07-30T00:02:12.928Z,1017.18
2022-07-30T00:03:13.030Z,1017.17
2022-07-30T00:04:13.103Z,1017.18
2022-07-30T00:05:13.236Z,1017.19
2022-07-30T00:06:13.199Z,1017.18
2022-07-30T00:07:13.125Z,1017.18
2022-07-30T00:08:13.571Z,1017.17
2022-07-30T00:09:13.584Z,1017.17
2022-07-30T00:10:13.507Z,1017.15
2022-07-30T00:11:13.541Z,1017.12
2022-07-30T00:12:13.520Z,1017.15
2022-07-30T00:13:14.351Z,1017.14
2022-07-30T00:14:15.007Z,1017.11
2022-07-30T00:15:12.995Z,1017.13
2022-07-30T00:16:13.151Z,1017.07
2022-07-30T00:17:14.493Z,1017.08
2022-07-30T00:18:13.376Z,1017.08
2022-07-30T00:19:13.701Z,1017.07
2022-07-30T00:20:13.787Z,1017.08
2022-07-30T00:21:20.183Z,1017.05
2022-07-30T00:22:13.560Z,1017.06
2022-07-30T00:23:13.458Z,1017.06
2022-07-30T00:24:13.340Z,1017.06
2022-07-30T00:25:13.328Z,1017.05
2022-07-30T00:26:13.303Z,1017.08
2022-07-30T00:27:13.387Z,1017.03
2022-07-30T00:28:13.389Z,1017.03
2022-07-30T00:29:13.316Z,1017.01
2022-07-30T00:30:13.220Z,1017.02
2022-07-30T00:31:13.717Z,1017.03
2022-07-30T00:32:13.836Z,1017.03
2022-07-30T00:33:13.823Z,1017.05
2022-07-30T00:34:13.803Z,1017.04
2022-07-30T00:35:15.344Z,1017.05
2022-07-30T00:36:13.924Z,1017.05
2022-07-30T00:37:12.811Z,1017.07
2022-07-30T00:38:13.723Z,1017.04
2022-07-30T00:39:13.997Z,1017.05
2022-07-30T00:40:13.204Z,1017.01
2022-07-30T00:41:13.247Z,1017.02
2022-07-30T00:42:13.830Z,1017.02
2022-07-30T00:43:13.957Z,1016.99
2022-07-30T00:44:12.979Z,1016.99
2022-07-30T00:45:12.906Z,1017.01
2022-07-30T00:46:17.916Z,1016.98
2022-07-30T00:47:13.834Z,1016.98
2022-07-30T00:48:14.071Z,1017.00
2022-07-30T00:49:18.155Z,1016.97
2022-07-30T00:50:13.299Z,1017.00
2022-07-30T00:51:13.165Z,1017.02
2022-07-30T00:52:13.067Z,1017.01
2022-07-30T00:53:13.113Z,1017.01
2022-07-30T00:54:14.746Z,1017.03
2022-07-30T00:55:13.728Z,1016.99
2022-07-30T00:56:13.595Z,1017.00
2022-07-30T00:57:13.770Z,1016.98
2022-07-30T00:58:13.536Z,1016.96
2022-07-30T00:59:13.492Z,1016.93
2022-07-30T01:00:13.673Z,1016.99
2022-07-30T01:01:13.840Z,1016.95
2022-07-30T01:02:14.106Z,1016.98
2022-07-30T01:03:13.507Z,1016.97
2022-07-30T01:04:13.995Z,1016.99
2022-07-30T01:05:13.075Z,1017.00
2022-07-30T01:06:14.181Z,1016.99
2022-07-30T01:07:13.555Z,1016.97
2022-07-30T01:08:13.462Z,1017.00
2022-07-30T01:09:13.919Z,1016.98
2022-07-30T01:10:12.971Z,1016.95
2022-07-30T01:11:12.973Z,1016.92
2022-07-30T01:12:13.127Z,1016.94
2022-07-30T01:13:13.113Z,1016.94
2022-07-30T01:14:12.987Z,1016.92
2022-07-30T01:15:13.026Z,1016.94
2022-07-30T01:16:13.360Z,1016.89
2022-07-30T01:17:13.383Z,1016.88
2022-07-30T01:18:13.421Z,1016.86
2022-07-30T01:19:13.430Z,1016.89
2022-07-30T01:20:13.325Z,1016.87
2022-07-30T01:21:13.351Z,1016.90
2022-07-30T01:22:13.191Z,1016.87
2022-07-30T01:23:13.372Z,1016.87
2022-07-30T01:24:13.419Z,1016.91
2022-07-30T01:25:13.544Z,1016.87
2022-07-30T01:26:13.450Z,1016.87
2022-07-30T01:27:14.828Z,1016.85
2022-07-30T01:28:13.027Z,1016.85
2022-07-30T01:29:13.600Z,1016.84
2022-07-30T01:30:13.594Z,1016.82
2022-07-30T01:31:13.113Z,1016.83
2022-07-30T01:32:13.060Z,1016.84
2022-07-30T01:33:18.459Z,1016.84
2022-07-30T01:34:13.512Z,1016.81
2022-07-30T01:35:13.430Z,1016.81
2022-07-30T01:36:13.382Z,1016.85
2022-07-30T01:37:13.263Z,1016.83
2022-07-30T01:38:13.174Z,1016.86
2022-07-30T01:39:13.435Z,1016.87
2022-07-30T01:40:18.503Z,1016.84
2022-07-30T01:41:13.622Z,1016.88
2022-07-30T01:42:13.562Z,1016.87
2022-07-30T01:43:13.598Z,1016.92
2022-07-30T01:44:13.808Z,1016.88
2022-07-30T01:45:13.704Z,1016.89
2022-07-30T01:46:14.019Z,1016.89
2022-07-30T01:47:13.167Z,1016.90
2022-07-30T01:48:13.176Z,1016.83
2022-07-30T01:49:13.509Z,1016.88
2022-07-30T01:50:13.752Z,1016.87
2022-07-30T01:51:13.589Z,1016.86
2022-07-30T01:52:13.579Z,1016.86
2022-07-30T01:53:13.614Z,1016.84
2022-07-30T01:54:13.723Z,1016.89
2022-07-30T01:55:18.587Z,1016.88
2022-07-30T01:56:13.614Z,1016.91
2022-07-30T01:57:13.352Z,1016.94
2022-07-30T01:58:13.297Z,1016.93
2022-07-30T01:59:18.734Z,1016.91
2022-07-30T02:00:13.746Z,1016.93
2022-07-30T02:01:13.999Z,1016.93
2022-07-30T02:02:13.289Z,1016.95
2022-07-30T02:03:13.065Z,1016.95
2022-07-30T02:04:13.436Z,1016.94
2022-07-30T02:05:13.569Z,1016.91
2022-07-30T02:06:13.677Z,1016.95
2022-07-30T02:07:13.511Z,1016.95
2022-07-30T02:08:14.034Z,1016.94
2022-07-30T02:09:13.417Z,1016.89
2022-07-30T02:10:13.440Z,1016.90
2022-07-30T02:11:13.292Z,1016.93
2022-07-30T02:12:13.329Z,1016.93
2022-07-30T02:13:13.503Z,1016.94
2022-07-30T02:14:13.583Z,1016.92
2022-07-30T02:15:13.497Z,1016.91
2022-07-30T02:16:13.459Z,1016.92
2022-07-30T02:17:19.086Z,1016.92
2022-07-30T02:18:13.411Z,1016.92
2022-07-30T02:19:13.957Z,1016.89
2022-07-30T02:20:13.392Z,1016.94
2022-07-30T02:21:13.471Z,1016.91
2022-07-30T02:22:13.287Z,1016.94
2022-07-30T02:23:13.215Z,1016.95
2022-07-30T02:24:13.112Z,1016.99
2022-07-30T02:25:13.373Z,1016.97
2022-07-30T02:26:13.399Z,1016.98
2022-07-30T02:27:13.362Z,1016.97
2022-07-30T02:28:13.513Z,1017.00
2022-07-30T02:29:13.541Z,1017.00
2022-07-30T02:30:13.519Z,1017.00
2022-07-30T02:31:18.483Z,1017.02
2022-07-30T02:32:13.841Z,1017.00
2022-07-30T02:33:13.936Z,1017.03
2022-07-30T02:34:13.266Z,1017.05
2022-07-30T02:35:18.174Z,1017.02
2022-07-30T02:36:13.381Z,1017.08
2022-07-30T02:37:13.324Z,1017.06
2022-07-30T02:38:13.134Z,1017.09
2022-07-30T02:39:13.477Z,1017.06
2022-07-30T02:40:13.416Z,1017.08
2022-07-30T02:41:13.385Z,1017.08
2022-07-30T02:42:13.504Z,1017.05
2022-07-30T02:43:13.506Z,1017.07
2022-07-30T02:44:13.721Z,1017.07
2022-07-30T02:45:18.896Z,1017.07
2022-07-30T02:46:13.270Z,1017.08
2022-07-30T02:47:13.613Z,1017.10
2022-07-30T02:48:31.188Z,1017.11
2022-07-30T02:49:13.608Z,1017.07
2022-07-30T02:50:13.443Z,1017.10
2022-07-30T02:51:13.559Z,1017.11
2022-07-30T02:52:13.541Z,1017.11
2022-07-30T02:53:13.465Z,1017.15
2022-07-30T02:54:13.445Z,1017.13
2022-07-30T02:55:13.365Z,1017.10
2022-07-30T02:56:13.608Z,1017.07
2022-07-30T02:57:13.590Z,1017.10
2022-07-30T02:58:13.416Z,1017.08
2022-07-30T02:59:13.285Z,1017.06
2022-07-30T03:00:13.207Z,1017.06
2022-07-30T03:01:13.228Z,1017.08
2022-07-30T03:02:14.763Z,1017.08
2022-07-30T03:03:13.169Z,1017.07
2022-07-30T03:04:13.134Z,1017.05
2022-07-30T03:05:13.248Z,1017.11
2022-07-30T03:06:13.275Z,1017.12
2022-07-30T03:07:13.196Z,1017.14
2022-07-30T03:08:13.291Z,1017.13
2022-07-30T03:09:13.268Z,1017.14
2022-07-30T03:10:13.669Z,1017.16
2022-07-30T03:11:13.655Z,1017.16
2022-07-30T03:12:13.622Z,1017.16
2022-07-30T03:13:13.563Z,1017.14
2022-07-30T03:14:13.418Z,1017.13
2022-07-30T03:15:13.215Z,1017.16
2022-07-30T03:16:13.339Z,1017.16
2022-07-30T03:17:13.317Z,1017.12
2022-07-30T03:18:13.330Z,1017.17
2022-07-30T03:19:13.469Z,1017.17
2022-07-30T03:20:14.495Z,1017.17
2022-07-30T03:21:13.524Z,1017.20
2022-07-30T03:22:13.935Z,1017.20
2022-07-30T03:23:12.978Z,1017.21
2022-07-30T03:24:12.901Z,1017.21
2022-07-30T03:25:13.187Z,1017.24
2022-07-30T03:26:13.514Z,1017.22
2022-07-30T03:27:15.504Z,1017.20
2022-07-30T03:28:13.492Z,1017.16
2022-07-30T03:29:13.475Z,1017.17
2022-07-30T03:30:13.489Z,1017.17
2022-07-30T03:31:13.536Z,1017.16
2022-07-30T03:32:14.941Z,1017.15
2022-07-30T03:33:13.258Z,1017.18
2022-07-30T03:34:14.479Z,1017.18
2022-07-30T03:35:16.800Z,1017.17
2022-07-30T03:36:13.563Z,1017.15
2022-07-30T03:37:13.636Z,1017.18
2022-07-30T03:38:13.519Z,1017.15
2022-07-30T03:39:13.558Z,1017.14
2022-07-30T03:40:13.664Z,1017.14
2022-07-30T03:41:13.674Z,1017.13
2022-07-30T03:42:13.990Z,1017.16
2022-07-30T03:43:18.358Z,1017.16
2022-07-30T03:44:13.284Z,1017.17
2022-07-30T03:45:13.360Z,1017.19
2022-07-30T03:46:13.370Z,1017.19
2022-07-30T03:47:13.433Z,1017.21
2022-07-30T03:48:13.540Z,1017.20
2022-07-30T03:49:13.959Z,1017.25
2022-07-30T03:50:12.882Z,1017.24
2022-07-30T03:51:13.463Z,1017.26
2022-07-30T03:52:13.336Z,1017.26
2022-07-30T03:53:13.499Z,1017.29
2022-07-30T03:54:13.944Z,1017.29
2022-07-30T03:55:13.050Z,1017.28
2022-07-30T03:56:13.026Z,1017.30
2022-07-30T03:57:15.327Z,1017.26
2022-07-30T03:58:18.343Z,1017.25
2022-07-30T03:59:13.281Z,1017.28
2022-07-30T04:00:13.331Z,1017.27
2022-07-30T04:01:13.322Z,1017.24
2022-07-30T04:02:13.314Z,1017.22
2022-07-30T04:03:13.421Z,1017.23
2022-07-30T04:04:12.902Z,1017.23
2022-07-30T04:05:12.942Z,1017.22
2022-07-30T04:06:12.917Z,1017.27
2022-07-30T04:07:13.219Z,1017.26
2022-07-30T04:08:13.240Z,1017.29
2022-07-30T04:09:13.866Z,1017.27
2022-07-30T04:10:12.818Z,1017.31
2022-07-30T04:11:13.673Z,1017.32
2022-07-30T04:12:13.481Z,1017.31
2022-07-30T04:13:13.766Z,1017.33
2022-07-30T04:14:13.912Z,1017.30
2022-07-30T04:16:05.841Z,1017.35
2022-07-30T04:16:39.642Z,1017.33
2022-07-30T04:17:13.723Z,1017.37
2022-07-30T04:18:13.823Z,1017.38
2022-07-30T04:19:13.857Z,1017.39
2022-07-30T04:20:17.932Z,1017.41
2022-07-30T04:21:16.172Z,1017.41
2022-07-30T04:22:13.868Z,1017.42
2022-07-30T04:23:13.804Z,1017.44
2022-07-30T04:24:13.676Z,1017.45
2022-07-30T04:25:22.447Z,1017.49
2022-07-30T04:26:13.669Z,1017.51
2022-07-30T04:27:13.607Z,1017.49
2022-07-30T04:28:13.564Z,1017.52
2022-07-30T04:29:18.173Z,1017.53
2022-07-30T04:30:13.328Z,1017.54
2022-07-30T04:31:13.334Z,1017.53
2022-07-30T04:32:13.371Z,1017.53
2022-07-30T04:33:13.391Z,1017.52
2022-07-30T04:34:13.391Z,1017.58
2022-07-30T04:35:13.358Z,1017.53
2022-07-30T04:36:16.231Z,1017.58
2022-07-30T04:37:13.404Z,1017.60
2022-07-30T04:38:13.368Z,1017.62
2022-07-30T04:39:13.217Z,1017.59
2022-07-30T04:40:13.194Z,1017.64
2022-07-30T04:41:13.198Z,1017.68
2022-07-30T04:42:13.073Z,1017.65
2022-07-30T04:43:13.046Z,1017.67
2022-07-30T04:44:13.315Z,1017.66
2022-07-30T04:45:13.882Z,1017.67
2022-07-30T04:46:13.010Z,1017.65
2022-07-30T04:47:12.961Z,1017.67
2022-07-30T04:48:13.861Z,1017.72
2022-07-30T04:49:13.974Z,1017.72
2022-07-30T04:50:13.390Z,1017.72
2022-07-30T04:51:13.952Z,1017.77
2022-07-30T04:52:13.271Z,1017.78
2022-07-30T04:53:13.555Z,1017.78
2022-07-30T04:54:15.391Z,1017.80
2022-07-30T04:55:13.171Z,1017.80
2022-07-30T04:56:13.304Z,1017.76
2022-07-30T04:57:13.467Z,1017.78
2022-07-30T04:58:13.766Z,1017.78
2022-07-30T04:59:13.872Z,1017.83
2022-07-30T05:00:13.946Z,1017.78
2022-07-30T05:01:12.873Z,1017.82
2022-07-30T05:02:13.083Z,1017.82
2022-07-30T05:03:13.015Z,1017.82
2022-07-30T05:04:12.962Z,1017.84
2022-07-30T05:05:12.947Z,1017.84
2022-07-30T05:06:13.001Z,1017.86
2022-07-30T05:07:13.049Z,1017.84
2022-07-30T05:08:13.112Z,1017.85
2022-07-30T05:09:13.462Z,1017.89
2022-07-30T05:10:13.539Z,1017.84
2022-07-30T05:11:13.540Z,1017.87
2022-07-30T05:12:13.453Z,1017.92
2022-07-30T05:13:13.400Z,1017.97
2022-07-30T05:14:13.623Z,1017.94
2022-07-30T05:15:18.570Z,1017.95
2022-07-30T05:16:13.832Z,1017.98
2022-07-30T05:17:12.855Z,1018.00
2022-07-30T05:18:13.988Z,1018.01
2022-07-30T05:19:12.935Z,1018.03
2022-07-30T05:20:12.899Z,1018.04
2022-07-30T05:21:12.892Z,1018.05
2022-07-30T05:22:12.840Z,1018.06
2022-07-30T05:23:13.871Z,1018.10
2022-07-30T05:24:13.861Z,1018.12
2022-07-30T05:25:15.848Z,1018.12
2022-07-30T05:26:13.261Z,1018.12
2022-07-30T05:27:14.626Z,1018.11
2022-07-30T05:28:13.693Z,1018.13
2022-07-30T05:29:20.082Z,1018.11
2022-07-30T05:30:13.419Z,1018.11
2022-07-30T05:31:13.413Z,1018.10
2022-07-30T05:32:13.361Z,1018.11
2022-07-30T05:33:15.823Z,1018.13
2022-07-30T05:34:13.416Z,1018.14
2022-07-30T05:35:13.340Z,1018.15
2022-07-30T05:36:13.420Z,1018.13
2022-07-30T05:37:13.455Z,1018.14
2022-07-30T05:38:13.564Z,1018.21
2022-07-30T05:39:13.914Z,1018.19
2022-07-30T05:40:12.897Z,1018.16
2022-07-30T05:41:24.564Z,1018.20
2022-07-30T05:42:13.191Z,1018.20
2022-07-30T05:43:12.978Z,1018.20
2022-07-30T05:44:12.846Z,1018.20
2022-07-30T05:45:13.703Z,1018.23
2022-07-30T05:46:13.631Z,1018.25
2022-07-30T05:47:13.881Z,1018.25
2022-07-30T05:48:14.145Z,1018.24
2022-07-30T05:49:13.100Z,1018.22
2022-07-30T05:50:13.547Z,1018.20
2022-07-30T05:51:13.559Z,1018.24
2022-07-30T05:52:13.682Z,1018.27
2022-07-30T05:53:13.927Z,1018.23
2022-07-30T05:54:12.929Z,1018.21
2022-07-30T05:55:13.072Z,1018.22
2022-07-30T05:56:13.130Z,1018.20
2022-07-30T05:57:12.944Z,1018.27
2022-07-30T05:58:13.037Z,1018.22
2022-07-30T05:59:12.852Z,1018.23
2022-07-30T06:00:14.402Z,1018.26
2022-07-30T06:01:13.356Z,1018.26
2022-07-30T06:02:13.771Z,1018.29
2022-07-30T06:03:13.865Z,1018.26
2022-07-30T06:04:14.088Z,1018.25
2022-07-30T06:05:13.263Z,1018.25
2022-07-30T06:06:13.694Z,1018.26
2022-07-30T06:07:19.360Z,1018.29
2022-07-30T06:08:13.822Z,1018.29
2022-07-30T06:09:13.787Z,1018.31
2022-07-30T06:10:13.895Z,1018.30
2022-07-30T06:11:18.171Z,1018.25
2022-07-30T06:12:13.509Z,1018.28
2022-07-30T06:13:13.438Z,1018.24
2022-07-30T06:14:13.751Z,1018.28
2022-07-30T06:15:13.770Z,1018.27
2022-07-30T06:16:13.757Z,1018.30
2022-07-30T06:17:13.749Z,1018.30
2022-07-30T06:18:13.913Z,1018.31
2022-07-30T06:19:19.400Z,1018.33
2022-07-30T06:20:13.905Z,1018.30
2022-07-30T06:21:12.787Z,1018.27
2022-07-30T06:22:13.923Z,1018.27
2022-07-30T06:23:13.237Z,1018.26
2022-07-30T06:24:13.106Z,1018.26
2022-07-30T06:25:13.286Z,1018.26
2022-07-30T06:26:18.880Z,1018.26
2022-07-30T06:27:15.511Z,1018.26
2022-07-30T06:28:35.199Z,1018.27
2022-07-30T06:29:13.556Z,1018.30
2022-07-30T06:30:13.489Z,1018.32
2022-07-30T06:31:14.012Z,1018.34
2022-07-30T06:32:13.095Z,1018.37
2022-07-30T06:33:13.051Z,1018.31
2022-07-30T06:34:13.051Z,1018.32
2022-07-30T06:35:13.246Z,1018.35
2022-07-30T06:36:13.849Z,1018.35
2022-07-30T06:37:13.293Z,1018.32
2022-07-30T06:38:14.186Z,1018.32
2022-07-30T06:39:13.344Z,1018.33
2022-07-30T06:40:13.277Z,1018.37
2022-07-30T06:41:18.341Z,1018.34
2022-07-30T06:42:13.334Z,1018.33
2022-07-30T06:43:13.378Z,1018.35
2022-07-30T06:44:18.331Z,1018.33
2022-07-30T06:45:13.354Z,1018.36
2022-07-30T06:46:13.834Z,1018.37
2022-07-30T06:47:13.953Z,1018.39
2022-07-30T06:48:13.294Z,1018.40
2022-07-30T06:49:13.810Z,1018.41
2022-07-30T06:50:13.972Z,1018.42
2022-07-30T06:51:13.334Z,1018.44
2022-07-30T06:52:18.357Z,1018.43
2022-07-30T06:53:13.685Z,1018.45
2022-07-30T06:54:13.628Z,1018.44
2022-07-30T06:55:13.626Z,1018.47
2022-07-30T06:56:13.597Z,1018.47
2022-07-30T06:57:13.467Z,1018.49
2022-07-30T06:58:13.411Z,1018.52
2022-07-30T06:59:13.423Z,1018.49
2022-07-30T07:00:13.506Z,1018.49
2022-07-30T07:01:13.598Z,1018.50
2022-07-30T07:02:13.842Z,1018.53
2022-07-30T07:03:14.024Z,1018.50
2022-07-30T07:04:13.038Z,1018.53
2022-07-30T07:05:18.059Z,1018.51
2022-07-30T07:06:13.132Z,1018.54
2022-07-30T07:07:13.759Z,1018.55
2022-07-30T07:08:14.384Z,1018.55
2022-07-30T07:09:13.345Z,1018.58
2022-07-30T07:10:13.179Z,1018.59
2022-07-30T07:11:13.216Z,1018.62
2022-07-30T07:12:13.535Z,1018.65
2022-07-30T07:13:13.715Z,1018.63
2022-07-30T07:14:13.747Z,1018.64
2022-07-30T07:15:14.163Z,1018.63
2022-07-30T07:16:13.038Z,1018.66
2022-07-30T07:17:13.655Z,1018.66
2022-07-30T07:18:13.910Z,1018.60
2022-07-30T07:19:13.500Z,1018.66
2022-07-30T07:20:13.103Z,1018.67
2022-07-30T07:21:13.277Z,1018.66
2022-07-30T07:22:13.334Z,1018.62
2022-07-30T07:23:13.443Z,1018.63
2022-07-30T07:24:12.865Z,1018.70
2022-07-30T07:25:14.008Z,1018.66
2022-07-30T07:26:13.020Z,1018.72
2022-07-30T07:27:15.575Z,1018.65
2022-07-30T07:28:13.844Z,1018.67
2022-07-30T07:29:13.125Z,1018.66
2022-07-30T07:30:18.275Z,1018.68
2022-07-30T07:32:06.111Z,1018.69
2022-07-30T07:32:14.841Z,1018.74
2022-07-30T07:33:15.588Z,1018.69
2022-07-30T07:34:16.993Z,1018.70
2022-07-30T07:35:13.167Z,1018.73
2022-07-30T07:36:13.155Z,1018.76
2022-07-30T07:37:13.210Z,1018.73
2022-07-30T07:38:13.116Z,1018.78
2022-07-30T07:39:14.812Z,1018.80
2022-07-30T07:40:13.014Z,1018.80
2022-07-30T07:41:13.196Z,1018.76
2022-07-30T07:42:13.342Z,1018.77
2022-07-30T07:43:13.382Z,1018.82
2022-07-30T07:44:13.400Z,1018.79
2022-07-30T07:45:13.472Z,1018.77
2022-07-30T07:46:13.513Z,1018.81
2022-07-30T07:47:13.771Z,1018.79
2022-07-30T07:48:13.787Z,1018.76
2022-07-30T07:49:14.025Z,1018.76
2022-07-30T07:50:13.276Z,1018.76
2022-07-30T07:51:13.237Z,1018.78
2022-07-30T07:52:13.457Z,1018.80
2022-07-30T07:53:13.447Z,1018.81
2022-07-30T07:54:21.727Z,1018.86
2022-07-30T07:55:13.349Z,1018.88
2022-07-30T07:56:13.076Z,1018.89
2022-07-30T07:57:15.286Z,1018.87
2022-07-30T07:58:13.496Z,1018.89
2022-07-30T07:59:13.699Z,1018.89
2022-07-30T08:00:13.336Z,1018.89
2022-07-30T08:01:13.328Z,1018.93
2022-07-30T08:02:13.480Z,1018.87
2022-07-30T08:03:13.629Z,1018.93
2022-07-30T08:04:13.886Z,1018.85
2022-07-30T08:05:12.802Z,1018.85
2022-07-30T08:06:15.203Z,1018.88
2022-07-30T08:07:13.545Z,1018.94
2022-07-30T08:08:13.879Z,1018.90
2022-07-30T08:09:14.138Z,1018.90
2022-07-30T08:10:13.118Z,1018.88
2022-07-30T08:11:13.090Z,1018.82
2022-07-30T08:12:12.991Z,1018.85
2022-07-30T08:13:49.189Z,1018.85
2022-07-30T08:14:13.484Z,1018.83
2022-07-30T08:15:13.680Z,1018.86
2022-07-30T08:16:13.715Z,1018.88
2022-07-30T08:17:13.749Z,1018.88
2022-07-30T08:18:13.639Z,1018.84
2022-07-30T08:19:13.765Z,1018.86
2022-07-30T08:20:13.898Z,1018.89
2022-07-30T08:21:13.294Z,1018.95
2022-07-30T08:22:13.202Z,1018.91
2022-07-30T08:23:13.580Z,1018.96
2022-07-30T08:24:13.592Z,1018.98
2022-07-30T08:25:24.305Z,1018.97
2022-07-30T08:26:13.976Z,1018.98
2022-07-30T08:27:13.208Z,1019.03
2022-07-30T08:28:34.161Z,1019.00
2022-07-30T08:29:17.117Z,1018.97
2022-07-30T08:30:13.357Z,1018.95
2022-07-30T08:31:13.647Z,1018.95
2022-07-30T08:32:14.034Z,1018.95
2022-07-30T08:33:13.189Z,1018.98
2022-07-30T08:34:13.263Z,1019.04
2022-07-30T08:35:13.298Z,1019.00
2022-07-30T08:36:13.209Z,1019.03
2022-07-30T08:37:14.101Z,1018.99
2022-07-30T08:38:18.609Z,1018.95
2022-07-30T08:39:13.572Z,1019.04
2022-07-30T08:40:13.664Z,1019.05
2022-07-30T08:41:13.613Z,1018.97
2022-07-30T08:42:14.670Z,1019.03
2022-07-30T08:43:13.838Z,1018.95
2022-07-30T08:44:13.893Z,1019.01
2022-07-30T08:45:12.877Z,1019.07
2022-07-30T08:46:13.931Z,1018.98
2022-07-30T08:47:12.860Z,1018.97
2022-07-30T08:48:16.575Z,1018.97
2022-07-30T08:49:13.823Z,1018.95
2022-07-30T08:50:14.413Z,1018.99
2022-07-30T08:51:12.833Z,1018.97
2022-07-30T08:52:13.783Z,1018.99
2022-07-30T08:53:19.202Z,1018.99
2022-07-30T08:54:13.285Z,1018.99
2022-07-30T08:55:13.416Z,1018.96
2022-07-30T08:56:13.323Z,1018.99
2022-07-30T08:57:13.396Z,1019.03
2022-07-30T08:58:13.515Z,1019.10
2022-07-30T08:59:13.500Z,1019.07
2022-07-30T09:00:13.523Z,1019.01
2022-07-30T09:01:13.551Z,1019.08
2022-07-30T09:02:13.779Z,1019.05
2022-07-30T09:03:13.032Z,1019.09
2022-07-30T09:04:13.395Z,1019.11
2022-07-30T09:05:13.278Z,1019.08
2022-07-30T09:06:13.354Z,1019.11
2022-07-30T09:07:13.509Z,1019.07
2022-07-30T09:08:13.455Z,1019.11
2022-07-30T09:09:13.635Z,1019.07
2022-07-30T09:10:13.566Z,1019.07
2022-07-30T09:11:13.546Z,1019.08
2022-07-30T09:12:14.489Z,1019.08
2022-07-30T09:13:13.614Z,1019.11
2022-07-30T09:14:14.118Z,1019.07
2022-07-30T09:15:13.061Z,1019.16
2022-07-30T09:16:13.285Z,1019.08
2022-07-30T09:17:13.162Z,1019.04
2022-07-30T09:18:13.302Z,1019.05
2022-07-30T09:19:13.237Z,1019.11
2022-07-30T09:20:13.036Z,1019.10
2022-07-30T09:21:13.299Z,1019.09
2022-07-30T09:22:13.461Z,1019.07
2022-07-30T09:23:13.839Z,1019.10
2022-07-30T09:24:13.805Z,1019.08
2022-07-30T09:25:13.840Z,1019.08
2022-07-30T09:26:13.773Z,1019.11
2022-07-30T09:27:14.134Z,1019.13
2022-07-30T09:28:16.556Z,1019.13
2022-07-30T09:29:14.047Z,1019.14
2022-07-30T09:30:13.320Z,1019.11
2022-07-30T09:31:13.675Z,1019.14
2022-07-30T09:32:13.675Z,1019.20
2022-07-30T09:33:13.675Z,1019.19
2022-07-30T09:34:14.025Z,1019.16
2022-07-30T09:35:13.252Z,1019.21
2022-07-30T09:36:14.548Z,1019.16
2022-07-30T09:37:13.417Z,1019.18
2022-07-30T09:38:13.545Z,1019.21
2022-07-30T09:39:13.774Z,1019.13
2022-07-30T09:40:14.055Z,1019.18
2022-07-30T09:41:36.352Z,1019.13
2022-07-30T09:42:13.066Z,1019.15
2022-07-30T09:43:13.847Z,1019.18
2022-07-30T09:44:13.938Z,1019.18
2022-07-30T09:45:12.899Z,1019.20
2022-07-30T09:46:14.020Z,1019.18
2022-07-30T09:47:13.179Z,1019.18
2022-07-30T09:48:13.180Z,1019.17
2022-07-30T09:49:13.212Z,1019.19
2022-07-30T09:50:13.179Z,1019.16
2022-07-30T09:51:15.713Z,1019.13
2022-07-30T09:52:13.190Z,1019.15
2022-07-30T09:53:13.147Z,1019.12
2022-07-30T09:54:13.068Z,1019.18
2022-07-30T09:55:12.948Z,1019.14
2022-07-30T09:56:13.077Z,1019.11
2022-07-30T09:57:22.655Z,1019.19
2022-07-30T09:58:20.074Z,1019.13
2022-07-30T09:59:18.731Z,1019.13
2022-07-30T10:00:13.696Z,1019.15
2022-07-30T10:01:13.177Z,1019.14
2022-07-30T10:02:13.199Z,1019.13
2022-07-30T10:03:21.766Z,1019.16
2022-07-30T10:04:13.417Z,1019.21
2022-07-30T10:05:14.569Z,1019.18
2022-07-30T10:06:12.953Z,1019.19
2022-07-30T10:07:25.643Z,1019.19
2022-07-30T10:08:16.569Z,1019.25
2022-07-30T10:09:16.972Z,1019.22
2022-07-30T10:10:13.125Z,1019.24
2022-07-30T10:11:14.792Z,1019.19
2022-07-30T10:12:13.877Z,1019.16
2022-07-30T10:13:14.730Z,1019.23
2022-07-30T10:14:14.109Z,1019.17
2022-07-30T10:15:13.624Z,1019.19
2022-07-30T10:16:13.816Z,1019.19
2022-07-30T10:17:14.605Z,1019.21
2022-07-30T10:18:13.945Z,1019.20
2022-07-30T10:19:19.217Z,1019.20
2022-07-30T10:20:13.295Z,1019.17
2022-07-30T10:21:13.146Z,1019.18
2022-07-30T10:22:13.185Z,1019.21
2022-07-30T10:23:15.789Z,1019.15
2022-07-30T10:24:13.282Z,1019.09
2022-07-30T10:25:16.316Z,1019.17
2022-07-30T10:26:13.675Z,1019.15
2022-07-30T10:27:13.382Z,1019.14
2022-07-30T10:28:13.960Z,1019.11
2022-07-30T10:29:16.011Z,1019.10
2022-07-30T10:30:13.776Z,1019.10
2022-07-30T10:31:47.929Z,1019.15
2022-07-30T10:32:13.313Z,1019.13
2022-07-30T10:33:34.244Z,1019.15
2022-07-30T10:34:13.351Z,1019.18
2022-07-30T10:35:12.987Z,1019.18
2022-07-30T10:36:18.306Z,1019.16
2022-07-30T10:37:13.458Z,1019.20
2022-07-30T10:38:14.211Z,1019.29
2022-07-30T10:39:13.234Z,1019.20
2022-07-30T10:40:13.598Z,1019.16
2022-07-30T10:41:12.983Z,1019.19
2022-07-30T10:42:13.225Z,1019.19
2022-07-30T10:43:13.222Z,1019.15
2022-07-30T10:44:12.965Z,1019.18
2022-07-30T10:45:17.606Z,1019.19
2022-07-30T10:46:21.938Z,1019.18
2022-07-30T10:47:14.565Z,1019.15
2022-07-30T10:48:13.639Z,1019.20
2022-07-30T10:49:18.460Z,1019.17
2022-07-30T10:50:15.708Z,1019.13
2022-07-30T10:51:25.353Z,1019.14
2022-07-30T10:52:13.398Z,1019.13
2022-07-30T10:53:13.333Z,1019.17
2022-07-30T10:54:18.366Z,1019.21
2022-07-30T10:55:15.779Z,1019.21
2022-07-30T10:56:12.808Z,1019.21
2022-07-30T10:57:14.858Z,1019.21
2022-07-30T10:58:14.445Z,1019.17
2022-07-30T10:59:15.068Z,1019.16
2022-07-30T11:00:15.346Z,1019.15
2022-07-30T11:01:18.387Z,1019.09
2022-07-30T11:02:17.763Z,1019.10
2022-07-30T11:03:15.009Z,1019.14
2022-07-30T11:04:14.392Z,1019.12
2022-07-30T11:05:16.675Z,1019.10
2022-07-30T11:06:13.904Z,1019.11
2022-07-30T11:07:17.422Z,1019.15
2022-07-30T11:08:18.194Z,1019.18
2022-07-30T11:09:14.807Z,1019.16
2022-07-30T11:10:13.731Z,1019.12
2022-07-30T11:11:19.226Z,1019.10
2022-07-30T11:12:15.062Z,1019.06
2022-07-30T11:13:13.972Z,1019.07
2022-07-30T11:14:13.149Z,1019.11
2022-07-30T11:15:19.101Z,1019.10
2022-07-30T11:16:17.662Z,1019.12
2022-07-30T11:17:15.172Z,1019.12
2022-07-30T11:18:13.869Z,1019.09
2022-07-30T11:19:56.203Z,1019.07
2022-07-30T11:20:13.390Z,1019.13
2022-07-30T11:21:15.529Z,1019.12
2022-07-30T11:22:13.511Z,1019.13
2022-07-30T11:23:14.258Z,1019.08
2022-07-30T11:24:14.948Z,1019.09
2022-07-30T11:25:14.222Z,1019.09
2022-07-30T11:26:14.777Z,1019.14
2022-07-30T11:27:15.277Z,1019.11
2022-07-30T11:28:13.505Z,1019.10
2022-07-30T11:29:15.722Z,1019.05
2022-07-30T11:30:17.672Z,1019.07
2022-07-30T11:31:13.051Z,1019.04
2022-07-30T11:32:14.962Z,1019.01
2022-07-30T11:33:16.088Z,1019.05
2022-07-30T11:34:14.822Z,1019.03
2022-07-30T11:35:16.035Z,1019.00
2022-07-30T11:36:16.318Z,1018.98
2022-07-30T11:37:18.459Z,1019.00
2022-07-30T11:38:14.602Z,1019.03
2022-07-30T11:39:17.024Z,1019.01
2022-07-30T11:40:16.043Z,1018.98
2022-07-30T11:41:21.578Z,1019.02
2022-07-30T11:42:15.190Z,1019.00
2022-07-30T11:43:14.179Z,1018.98
2022-07-30T11:44:18.638Z,1018.99
2022-07-30T11:45:19.647Z,1019.08
2022-07-30T11:46:16.744Z,1019.05
2022-07-30T11:47:16.987Z,1019.05
2022-07-30T11:48:17.650Z,1018.99
2022-07-30T11:49:18.125Z,1019.02
2022-07-30T11:50:18.876Z,1019.03
2022-07-30T11:51:18.280Z,1019.01
2022-07-30T11:52:16.336Z,1019.00
2022-07-30T11:53:18.454Z,1019.00
2022-07-30T11:54:16.599Z,1019.01
2022-07-30T11:55:17.804Z,1019.00
2022-07-30T11:56:18.624Z,1018.95
2022-07-30T11:57:17.995Z,1019.03
2022-07-30T11:58:18.943Z,1019.05
2022-07-30T11:59:17.364Z,1019.03
2022-07-30T12:00:20.610Z,1018.97
2022-07-30T12:01:16.690Z,1018.96
2022-07-30T12:02:18.393Z,1018.90
2022-07-30T12:03:18.149Z,1018.90
2022-07-30T12:04:19.043Z,1018.90
2022-07-30T12:05:18.526Z,1018.96